sensor_id;sensor_type;location;lat;lon;timestamp;temperature;humidity
488;DHT22;16586;48.976;9.584;2022-11-25T00:01:41;5.50;64.10
488;DHT22;16586;48.976;9.584;2022-11-25T00:04:08;5.60;64.20
488;DHT22;16586;48.976;9.584;2022-11-25T00:06:35;5.50;64.00
488;DHT22;16586;48.976;9.584;2022-11-25T00:09:05;5.60;63.50
488;DHT22;16586;48.976;9.584;2022-11-25T00:11:33;5.50;62.90
488;DHT22;16586;48.976;9.584;2022-11-25T00:14:00;5.50;62.70
488;DHT22;16586;48.976;9.584;2022-11-25T00:16:29;5.50;61.00
488;DHT22;16586;48.976;9.584;2022-11-25T00:18:56;5.30;61.00
488;DHT22;16586;48.976;9.584;2022-11-25T00:21:24;5.20;61.70
488;DHT22;16586;48.976;9.584;2022-11-25T00:23:52;5.20;62.10
488;DHT22;16586;48.976;9.584;2022-11-25T00:26:20;5.10;62.70
488;DHT22;16586;48.976;9.584;2022-11-25T00:28:48;5.20;63.10
488;DHT22;16586;48.976;9.584;2022-11-25T00:31:16;5.20;63.20
488;DHT22;16586;48.976;9.584;2022-11-25T00:33:45;5.20;62.90
488;DHT22;16586;48.976;9.584;2022-11-25T00:36:16;5.20;62.90
488;DHT22;16586;48.976;9.584;2022-11-25T00:38:44;5.30;63.50
488;DHT22;16586;48.976;9.584;2022-11-25T00:41:12;5.40;62.60
488;DHT22;16586;48.976;9.584;2022-11-25T00:43:56;5.90;61.10
488;DHT22;16586;48.976;9.584;2022-11-25T00:46:41;6.40;59.70
488;DHT22;16586;48.976;9.584;2022-11-25T00:49:09;5.80;60.10
488;DHT22;16586;48.976;9.584;2022-11-25T00:51:36;5.20;59.50
488;DHT22;16586;48.976;9.584;2022-11-25T00:54:03;5.10;59.80
488;DHT22;16586;48.976;9.584;2022-11-25T00:56:30;5.00;60.10
488;DHT22;16586;48.976;9.584;2022-11-25T00:58:57;5.00;60.40
488;DHT22;16586;48.976;9.584;2022-11-25T01:01:24;4.90;60.40
488;DHT22;16586;48.976;9.584;2022-11-25T01:03:51;4.90;60.80
488;DHT22;16586;48.976;9.584;2022-11-25T01:06:20;4.80;60.90
488;DHT22;16586;48.976;9.584;2022-11-25T01:08:47;4.80;61.10
488;DHT22;16586;48.976;9.584;2022-11-25T01:11:17;4.80;62.50
488;DHT22;16586;48.976;9.584;2022-11-25T01:13:45;4.70;62.40
488;DHT22;16586;48.976;9.584;2022-11-25T01:16:13;4.70;62.30
488;DHT22;16586;48.976;9.584;2022-11-25T01:18:40;4.80;62.90
488;DHT22;16586;48.976;9.584;2022-11-25T01:21:08;4.80;61.90
488;DHT22;16586;48.976;9.584;2022-11-25T01:23:37;4.80;61.90
488;DHT22;16586;48.976;9.584;2022-11-25T01:26:07;4.80;60.30
488;DHT22;16586;48.976;9.584;2022-11-25T01:28:34;4.70;60.20
488;DHT22;16586;48.976;9.584;2022-11-25T01:31:02;4.70;60.90
488;DHT22;16586;48.976;9.584;2022-11-25T01:33:30;4.70;59.20
488;DHT22;16586;48.976;9.584;2022-11-25T01:36:00;4.70;59.30
488;DHT22;16586;48.976;9.584;2022-11-25T01:38:28;4.70;59.50
488;DHT22;16586;48.976;9.584;2022-11-25T01:40:56;4.70;60.30
488;DHT22;16586;48.976;9.584;2022-11-25T01:43:24;4.70;59.60
488;DHT22;16586;48.976;9.584;2022-11-25T01:45:52;4.60;60.10
488;DHT22;16586;48.976;9.584;2022-11-25T01:48:24;4.50;60.90
488;DHT22;16586;48.976;9.584;2022-11-25T01:50:52;4.60;59.90
488;DHT22;16586;48.976;9.584;2022-11-25T01:53:21;4.60;59.70
488;DHT22;16586;48.976;9.584;2022-11-25T01:55:52;4.30;60.00
488;DHT22;16586;48.976;9.584;2022-11-25T01:58:25;4.50;60.70
488;DHT22;16586;48.976;9.584;2022-11-25T02:00:53;4.70;59.50
488;DHT22;16586;48.976;9.584;2022-11-25T02:03:22;4.70;59.10
488;DHT22;16586;48.976;9.584;2022-11-25T02:05:54;4.70;58.50
488;DHT22;16586;48.976;9.584;2022-11-25T02:08:22;4.60;58.40
488;DHT22;16586;48.976;9.584;2022-11-25T02:10:51;4.50;59.30
488;DHT22;16586;48.976;9.584;2022-11-25T02:13:19;4.40;59.40
488;DHT22;16586;48.976;9.584;2022-11-25T02:15:47;4.40;60.70
488;DHT22;16586;48.976;9.584;2022-11-25T02:18:14;4.50;60.40
488;DHT22;16586;48.976;9.584;2022-11-25T02:20:42;4.60;59.50
488;DHT22;16586;48.976;9.584;2022-11-25T02:23:14;4.60;59.50
488;DHT22;16586;48.976;9.584;2022-11-25T02:25:45;4.60;60.00
488;DHT22;16586;48.976;9.584;2022-11-25T02:28:14;4.60;60.10
488;DHT22;16586;48.976;9.584;2022-11-25T02:30:42;4.50;59.70
488;DHT22;16586;48.976;9.584;2022-11-25T02:33:09;4.50;61.30
488;DHT22;16586;48.976;9.584;2022-11-25T02:35:38;4.50;60.80
488;DHT22;16586;48.976;9.584;2022-11-25T02:38:09;4.60;60.80
488;DHT22;16586;48.976;9.584;2022-11-25T02:40:45;4.70;60.30
488;DHT22;16586;48.976;9.584;2022-11-25T02:43:13;6.50;61.70
488;DHT22;16586;48.976;9.584;2022-11-25T02:45:57;4.70;60.00
488;DHT22;16586;48.976;9.584;2022-11-25T02:48:25;4.60;59.70
488;DHT22;16586;48.976;9.584;2022-11-25T02:50:53;4.60;60.00
488;DHT22;16586;48.976;9.584;2022-11-25T02:53:20;4.60;58.90
488;DHT22;16586;48.976;9.584;2022-11-25T02:55:48;4.60;59.10
488;DHT22;16586;48.976;9.584;2022-11-25T02:58:16;4.60;59.20
488;DHT22;16586;48.976;9.584;2022-11-25T03:00:43;4.50;59.40
488;DHT22;16586;48.976;9.584;2022-11-25T03:03:11;4.40;59.90
488;DHT22;16586;48.976;9.584;2022-11-25T03:05:38;4.40;59.70
488;DHT22;16586;48.976;9.584;2022-11-25T03:08:05;4.50;59.50
488;DHT22;16586;48.976;9.584;2022-11-25T03:10:32;4.40;60.00
488;DHT22;16586;48.976;9.584;2022-11-25T03:15:28;4.40;59.90
488;DHT22;16586;48.976;9.584;2022-11-25T03:17:55;4.50;59.40
488;DHT22;16586;48.976;9.584;2022-11-25T03:20:22;4.50;59.30
488;DHT22;16586;48.976;9.584;2022-11-25T03:22:49;4.70;60.60
488;DHT22;16586;48.976;9.584;2022-11-25T03:25:17;4.40;59.80
488;DHT22;16586;48.976;9.584;2022-11-25T03:27:44;4.50;59.90
488;DHT22;16586;48.976;9.584;2022-11-25T03:30:15;4.50;59.30
488;DHT22;16586;48.976;9.584;2022-11-25T03:32:42;4.60;58.90
488;DHT22;16586;48.976;9.584;2022-11-25T03:35:10;4.70;59.40
488;DHT22;16586;48.976;9.584;2022-11-25T03:37:37;4.10;58.50
488;DHT22;16586;48.976;9.584;2022-11-25T03:40:05;4.40;59.20
488;DHT22;16586;48.976;9.584;2022-11-25T03:42:33;4.50;60.00
488;DHT22;16586;48.976;9.584;2022-11-25T03:45:00;4.30;58.90
488;DHT22;16586;48.976;9.584;2022-11-25T03:47:28;4.30;59.80
488;DHT22;16586;48.976;9.584;2022-11-25T03:49:55;4.30;59.50
488;DHT22;16586;48.976;9.584;2022-11-25T03:52:21;4.40;59.30
488;DHT22;16586;48.976;9.584;2022-11-25T03:54:48;4.40;59.10
488;DHT22;16586;48.976;9.584;2022-11-25T03:57:15;4.20;59.20
488;DHT22;16586;48.976;9.584;2022-11-25T03:59:42;4.30;60.50
488;DHT22;16586;48.976;9.584;2022-11-25T04:02:09;4.40;59.30
488;DHT22;16586;48.976;9.584;2022-11-25T04:04:37;4.40;59.30
488;DHT22;16586;48.976;9.584;2022-11-25T04:07:04;4.40;59.20
488;DHT22;16586;48.976;9.584;2022-11-25T04:09:31;4.40;59.10
488;DHT22;16586;48.976;9.584;2022-11-25T04:11:58;4.30;59.80
488;DHT22;16586;48.976;9.584;2022-11-25T04:14:42;4.30;59.20
488;DHT22;16586;48.976;9.584;2022-11-25T04:17:09;4.40;59.30
488;DHT22;16586;48.976;9.584;2022-11-25T04:19:37;4.50;58.50
488;DHT22;16586;48.976;9.584;2022-11-25T04:22:04;4.40;58.10
488;DHT22;16586;48.976;9.584;2022-11-25T04:24:31;4.30;58.60
488;DHT22;16586;48.976;9.584;2022-11-25T04:26:57;4.30;58.50
488;DHT22;16586;48.976;9.584;2022-11-25T04:29:24;4.20;58.30
488;DHT22;16586;48.976;9.584;2022-11-25T04:31:51;4.20;59.10
488;DHT22;16586;48.976;9.584;2022-11-25T04:34:18;4.20;59.10
488;DHT22;16586;48.976;9.584;2022-11-25T04:36:46;4.30;58.90
488;DHT22;16586;48.976;9.584;2022-11-25T04:39:13;4.30;58.80
488;DHT22;16586;48.976;9.584;2022-11-25T04:41:40;4.20;58.70
488;DHT22;16586;48.976;9.584;2022-11-25T04:44:06;4.20;59.10
488;DHT22;16586;48.976;9.584;2022-11-25T04:46:36;4.20;59.10
488;DHT22;16586;48.976;9.584;2022-11-25T04:49:05;5.10;60.30
488;DHT22;16586;48.976;9.584;2022-11-25T04:51:31;4.20;58.70
488;DHT22;16586;48.976;9.584;2022-11-25T04:54:00;4.30;58.30
488;DHT22;16586;48.976;9.584;2022-11-25T04:56:26;4.20;58.20
488;DHT22;16586;48.976;9.584;2022-11-25T04:58:53;4.10;59.40
488;DHT22;16586;48.976;9.584;2022-11-25T05:01:37;4.10;59.00
488;DHT22;16586;48.976;9.584;2022-11-25T05:04:03;4.10;60.00
488;DHT22;16586;48.976;9.584;2022-11-25T05:06:30;4.10;59.00
488;DHT22;16586;48.976;9.584;2022-11-25T05:08:57;4.10;59.00
488;DHT22;16586;48.976;9.584;2022-11-25T05:11:25;4.10;59.80
488;DHT22;16586;48.976;9.584;2022-11-25T05:13:52;4.20;59.50
488;DHT22;16586;48.976;9.584;2022-11-25T05:16:19;4.30;58.80
488;DHT22;16586;48.976;9.584;2022-11-25T05:18:46;4.40;58.00
488;DHT22;16586;48.976;9.584;2022-11-25T05:21:12;4.40;58.10
488;DHT22;16586;48.976;9.584;2022-11-25T05:23:39;4.30;58.10
488;DHT22;16586;48.976;9.584;2022-11-25T05:26:06;4.30;58.60
488;DHT22;16586;48.976;9.584;2022-11-25T05:28:34;4.20;59.10
488;DHT22;16586;48.976;9.584;2022-11-25T05:31:01;4.20;59.10
488;DHT22;16586;48.976;9.584;2022-11-25T05:33:28;4.20;59.60
488;DHT22;16586;48.976;9.584;2022-11-25T05:35:55;4.30;59.50
488;DHT22;16586;48.976;9.584;2022-11-25T05:38:23;4.40;59.40
488;DHT22;16586;48.976;9.584;2022-11-25T05:43:17;4.30;59.30
488;DHT22;16586;48.976;9.584;2022-11-25T05:45:46;4.30;59.90
488;DHT22;16586;48.976;9.584;2022-11-25T05:48:12;4.30;60.70
488;DHT22;16586;48.976;9.584;2022-11-25T05:50:39;4.40;59.90
488;DHT22;16586;48.976;9.584;2022-11-25T05:53:06;4.40;59.90
488;DHT22;16586;48.976;9.584;2022-11-25T05:55:35;4.70;60.00
488;DHT22;16586;48.976;9.584;2022-11-25T05:58:03;4.50;59.30
488;DHT22;16586;48.976;9.584;2022-11-25T06:00:31;4.50;58.50
488;DHT22;16586;48.976;9.584;2022-11-25T06:02:59;4.50;58.50
488;DHT22;16586;48.976;9.584;2022-11-25T06:05:26;4.70;58.80
488;DHT22;16586;48.976;9.584;2022-11-25T06:07:52;4.30;59.70
488;DHT22;16586;48.976;9.584;2022-11-25T06:10:19;4.20;59.10
488;DHT22;16586;48.976;9.584;2022-11-25T06:12:47;4.20;59.30
488;DHT22;16586;48.976;9.584;2022-11-25T06:15:13;4.20;59.30
488;DHT22;16586;48.976;9.584;2022-11-25T06:17:40;4.30;59.20
488;DHT22;16586;48.976;9.584;2022-11-25T06:22:36;4.30;58.90
488;DHT22;16586;48.976;9.584;2022-11-25T06:25:03;4.30;58.70
488;DHT22;16586;48.976;9.584;2022-11-25T06:27:30;4.20;58.60
488;DHT22;16586;48.976;9.584;2022-11-25T06:29:57;4.10;59.00
488;DHT22;16586;48.976;9.584;2022-11-25T06:32:24;4.10;59.00
488;DHT22;16586;48.976;9.584;2022-11-25T06:34:51;4.10;59.20
488;DHT22;16586;48.976;9.584;2022-11-25T06:37:19;4.10;59.30
488;DHT22;16586;48.976;9.584;2022-11-25T06:39:46;4.20;59.10
488;DHT22;16586;48.976;9.584;2022-11-25T06:42:15;4.20;58.80
488;DHT22;16586;48.976;9.584;2022-11-25T06:44:42;4.30;58.70
488;DHT22;16586;48.976;9.584;2022-11-25T06:47:09;4.30;58.30
488;DHT22;16586;48.976;9.584;2022-11-25T06:49:36;4.20;58.30
488;DHT22;16586;48.976;9.584;2022-11-25T06:52:03;4.10;58.90
488;DHT22;16586;48.976;9.584;2022-11-25T06:56:58;4.10;59.10
488;DHT22;16586;48.976;9.584;2022-11-25T06:59:25;4.10;60.10
488;DHT22;16586;48.976;9.584;2022-11-25T07:01:52;4.10;59.00
488;DHT22;16586;48.976;9.584;2022-11-25T07:04:18;4.10;59.00
488;DHT22;16586;48.976;9.584;2022-11-25T07:06:45;4.10;59.00
488;DHT22;16586;48.976;9.584;2022-11-25T07:09:14;4.10;59.70
488;DHT22;16586;48.976;9.584;2022-11-25T07:11:42;4.10;59.30
488;DHT22;16586;48.976;9.584;2022-11-25T07:14:10;4.10;59.10
488;DHT22;16586;48.976;9.584;2022-11-25T07:16:39;4.10;59.00
488;DHT22;16586;48.976;9.584;2022-11-25T07:19:06;4.10;59.00
488;DHT22;16586;48.976;9.584;2022-11-25T07:21:33;4.20;58.70
488;DHT22;16586;48.976;9.584;2022-11-25T07:24:02;4.20;58.50
488;DHT22;16586;48.976;9.584;2022-11-25T07:26:31;4.10;59.00
488;DHT22;16586;48.976;9.584;2022-11-25T07:29:02;4.10;59.00
488;DHT22;16586;48.976;9.584;2022-11-25T07:31:32;4.00;59.30
488;DHT22;16586;48.976;9.584;2022-11-25T07:34:00;4.00;58.90
488;DHT22;16586;48.976;9.584;2022-11-25T07:36:28;3.80;59.90
488;DHT22;16586;48.976;9.584;2022-11-25T07:38:56;3.90;59.30
488;DHT22;16586;48.976;9.584;2022-11-25T07:41:25;4.20;60.30
488;DHT22;16586;48.976;9.584;2022-11-25T07:43:54;4.10;60.40
488;DHT22;16586;48.976;9.584;2022-11-25T07:46:27;4.10;60.80
488;DHT22;16586;48.976;9.584;2022-11-25T07:48:56;4.20;60.80
488;DHT22;16586;48.976;9.584;2022-11-25T07:51:24;4.20;60.10
488;DHT22;16586;48.976;9.584;2022-11-25T07:53:52;4.30;60.00
488;DHT22;16586;48.976;9.584;2022-11-25T07:56:20;4.20;60.50
488;DHT22;16586;48.976;9.584;2022-11-25T07:58:47;4.30;60.20
488;DHT22;16586;48.976;9.584;2022-11-25T08:01:15;4.40;60.10
488;DHT22;16586;48.976;9.584;2022-11-25T08:03:46;4.50;60.20
488;DHT22;16586;48.976;9.584;2022-11-25T08:06:14;4.50;60.20
488;DHT22;16586;48.976;9.584;2022-11-25T08:08:41;4.50;60.20
488;DHT22;16586;48.976;9.584;2022-11-25T08:11:10;4.50;60.20
488;DHT22;16586;48.976;9.584;2022-11-25T08:13:38;4.60;61.20
488;DHT22;16586;48.976;9.584;2022-11-25T08:16:05;4.70;61.70
488;DHT22;16586;48.976;9.584;2022-11-25T08:18:32;4.90;59.80
488;DHT22;16586;48.976;9.584;2022-11-25T08:21:02;4.90;59.50
488;DHT22;16586;48.976;9.584;2022-11-25T08:23:29;5.00;59.90
488;DHT22;16586;48.976;9.584;2022-11-25T08:26:00;4.80;59.80
488;DHT22;16586;48.976;9.584;2022-11-25T08:28:28;5.10;60.20
488;DHT22;16586;48.976;9.584;2022-11-25T08:31:00;5.10;60.20
488;DHT22;16586;48.976;9.584;2022-11-25T08:33:28;5.20;60.10
488;DHT22;16586;48.976;9.584;2022-11-25T08:35:55;5.90;60.30
488;DHT22;16586;48.976;9.584;2022-11-25T08:38:23;5.40;58.30
488;DHT22;16586;48.976;9.584;2022-11-25T08:40:50;5.40;58.60
488;DHT22;16586;48.976;9.584;2022-11-25T08:43:18;5.40;59.00
488;DHT22;16586;48.976;9.584;2022-11-25T08:45:46;5.40;59.00
488;DHT22;16586;48.976;9.584;2022-11-25T08:48:13;5.40;59.30
488;DHT22;16586;48.976;9.584;2022-11-25T08:50:41;5.50;59.20
488;DHT22;16586;48.976;9.584;2022-11-25T08:53:10;5.50;59.20
488;DHT22;16586;48.976;9.584;2022-11-25T08:55:38;5.70;59.70
488;DHT22;16586;48.976;9.584;2022-11-25T08:58:05;4.30;58.60
488;DHT22;16586;48.976;9.584;2022-11-25T09:00:37;5.60;59.90
488;DHT22;16586;48.976;9.584;2022-11-25T09:03:04;5.70;59.30
488;DHT22;16586;48.976;9.584;2022-11-25T09:05:32;5.70;59.50
488;DHT22;16586;48.976;9.584;2022-11-25T09:10:28;5.80;59.60
488;DHT22;16586;48.976;9.584;2022-11-25T09:12:56;5.70;60.10
488;DHT22;16586;48.976;9.584;2022-11-25T09:15:24;6.60;60.70
488;DHT22;16586;48.976;9.584;2022-11-25T09:17:57;5.90;60.10
488;DHT22;16586;48.976;9.584;2022-11-25T09:20:24;6.10;60.30
488;DHT22;16586;48.976;9.584;2022-11-25T09:22:51;5.90;59.40
488;DHT22;16586;48.976;9.584;2022-11-25T09:25:17;5.90;59.70
488;DHT22;16586;48.976;9.584;2022-11-25T09:27:44;6.70;61.90
488;DHT22;16586;48.976;9.584;2022-11-25T09:30:13;5.80;60.40
488;DHT22;16586;48.976;9.584;2022-11-25T09:32:40;5.70;60.40
488;DHT22;16586;48.976;9.584;2022-11-25T09:35:07;5.70;61.10
488;DHT22;16586;48.976;9.584;2022-11-25T09:37:34;5.80;62.00
488;DHT22;16586;48.976;9.584;2022-11-25T09:40:01;5.80;61.70
488;DHT22;16586;48.976;9.584;2022-11-25T09:42:33;5.90;61.80
488;DHT22;16586;48.976;9.584;2022-11-25T09:45:26;7.50;64.30
488;DHT22;16586;48.976;9.584;2022-11-25T09:48:27;6.10;62.20
488;DHT22;16586;48.976;9.584;2022-11-25T09:51:03;7.30;64.10
488;DHT22;16586;48.976;9.584;2022-11-25T09:53:41;7.80;64.60
488;DHT22;16586;48.976;9.584;2022-11-25T09:56:13;6.50;62.70
488;DHT22;16586;48.976;9.584;2022-11-25T09:58:47;6.60;62.90
488;DHT22;16586;48.976;9.584;2022-11-25T10:01:21;6.80;62.70
488;DHT22;16586;48.976;9.584;2022-11-25T10:03:52;7.30;62.40
488;DHT22;16586;48.976;9.584;2022-11-25T10:06:25;6.70;61.20
488;DHT22;16586;48.976;9.584;2022-11-25T10:08:55;6.70;61.80
488;DHT22;16586;48.976;9.584;2022-11-25T10:11:30;6.60;61.10
488;DHT22;16586;48.976;9.584;2022-11-25T10:14:02;6.60;61.40
488;DHT22;16586;48.976;9.584;2022-11-25T10:16:41;6.60;61.10
488;DHT22;16586;48.976;9.584;2022-11-25T10:19:16;6.50;62.20
488;DHT22;16586;48.976;9.584;2022-11-25T10:21:46;7.20;62.90
488;DHT22;16586;48.976;9.584;2022-11-25T10:24:15;6.70;61.90
488;DHT22;16586;48.976;9.584;2022-11-25T10:26:45;6.80;61.90
488;DHT22;16586;48.976;9.584;2022-11-25T10:29:23;6.80;61.80
488;DHT22;16586;48.976;9.584;2022-11-25T10:31:58;6.80;63.20
488;DHT22;16586;48.976;9.584;2022-11-25T10:34:34;7.00;63.50
488;DHT22;16586;48.976;9.584;2022-11-25T10:37:05;7.70;64.40
488;DHT22;16586;48.976;9.584;2022-11-25T10:39:36;7.30;64.20
488;DHT22;16586;48.976;9.584;2022-11-25T10:42:06;7.30;64.00
488;DHT22;16586;48.976;9.584;2022-11-25T10:44:35;7.40;63.00
488;DHT22;16586;48.976;9.584;2022-11-25T10:47:15;7.40;63.30
488;DHT22;16586;48.976;9.584;2022-11-25T10:49:54;8.10;63.80
488;DHT22;16586;48.976;9.584;2022-11-25T10:52:28;8.40;63.80
488;DHT22;16586;48.976;9.584;2022-11-25T10:54:56;7.60;62.00
488;DHT22;16586;48.976;9.584;2022-11-25T10:57:27;7.70;62.20
488;DHT22;16586;48.976;9.584;2022-11-25T10:59:56;7.70;62.20
488;DHT22;16586;48.976;9.584;2022-11-25T11:02:27;7.70;61.80
488;DHT22;16586;48.976;9.584;2022-11-25T11:04:59;7.80;61.80
488;DHT22;16586;48.976;9.584;2022-11-25T11:07:29;7.80;61.60
488;DHT22;16586;48.976;9.584;2022-11-25T11:10:22;7.80;62.70
488;DHT22;16586;48.976;9.584;2022-11-25T11:12:54;7.80;61.90
488;DHT22;16586;48.976;9.584;2022-11-25T11:15:23;8.10;62.90
488;DHT22;16586;48.976;9.584;2022-11-25T11:17:53;7.90;61.90
488;DHT22;16586;48.976;9.584;2022-11-25T11:20:22;7.90;62.40
488;DHT22;16586;48.976;9.584;2022-11-25T11:23:01;7.90;62.80
488;DHT22;16586;48.976;9.584;2022-11-25T11:25:30;7.90;62.50
488;DHT22;16586;48.976;9.584;2022-11-25T11:27:58;7.80;62.60
488;DHT22;16586;48.976;9.584;2022-11-25T11:30:27;7.80;62.30
488;DHT22;16586;48.976;9.584;2022-11-25T11:32:59;7.80;62.20
488;DHT22;16586;48.976;9.584;2022-11-25T11:35:35;7.80;63.50
488;DHT22;16586;48.976;9.584;2022-11-25T11:38:10;8.00;63.60
488;DHT22;16586;48.976;9.584;2022-11-25T11:40:41;7.90;64.00
488;DHT22;16586;48.976;9.584;2022-11-25T11:43:24;7.80;63.20
488;DHT22;16586;48.976;9.584;2022-11-25T11:46:08;8.20;64.80
488;DHT22;16586;48.976;9.584;2022-11-25T11:48:40;7.80;64.90
488;DHT22;16586;48.976;9.584;2022-11-25T11:51:16;7.60;64.80
488;DHT22;16586;48.976;9.584;2022-11-25T11:53:51;7.60;65.70
488;DHT22;16586;48.976;9.584;2022-11-25T11:56:28;7.70;65.60
488;DHT22;16586;48.976;9.584;2022-11-25T11:59:05;7.80;65.60
488;DHT22;16586;48.976;9.584;2022-11-25T12:01:47;7.90;65.30
488;DHT22;16586;48.976;9.584;2022-11-25T12:04:23;7.90;65.50
488;DHT22;16586;48.976;9.584;2022-11-25T12:06:59;7.70;65.10
488;DHT22;16586;48.976;9.584;2022-11-25T12:09:30;8.70;66.50
488;DHT22;16586;48.976;9.584;2022-11-25T12:12:02;8.00;64.70
488;DHT22;16586;48.976;9.584;2022-11-25T12:14:34;8.00;64.80
488;DHT22;16586;48.976;9.584;2022-11-25T12:17:10;8.40;65.60
488;DHT22;16586;48.976;9.584;2022-11-25T12:19:46;9.40;66.60
488;DHT22;16586;48.976;9.584;2022-11-25T12:22:20;8.20;65.30
488;DHT22;16586;48.976;9.584;2022-11-25T12:24:52;8.20;64.60
488;DHT22;16586;48.976;9.584;2022-11-25T12:27:26;8.30;65.20
488;DHT22;16586;48.976;9.584;2022-11-25T12:30:00;8.30;64.50
488;DHT22;16586;48.976;9.584;2022-11-25T12:32:51;9.00;65.60
488;DHT22;16586;48.976;9.584;2022-11-25T12:35:30;8.40;64.90
488;DHT22;16586;48.976;9.584;2022-11-25T12:38:04;8.40;64.60
488;DHT22;16586;48.976;9.584;2022-11-25T12:43:11;8.60;70.40
488;DHT22;16586;48.976;9.584;2022-11-25T12:45:43;8.50;64.10
488;DHT22;16586;48.976;9.584;2022-11-25T12:48:11;8.40;64.40
488;DHT22;16586;48.976;9.584;2022-11-25T12:50:48;8.50;66.70
488;DHT22;16586;48.976;9.584;2022-11-25T12:53:25;8.40;67.50
488;DHT22;16586;48.976;9.584;2022-11-25T12:55:54;8.20;66.20
488;DHT22;16586;48.976;9.584;2022-11-25T12:58:44;8.30;65.90
488;DHT22;16586;48.976;9.584;2022-11-25T13:01:35;8.60;64.80
488;DHT22;16586;48.976;9.584;2022-11-25T13:04:28;8.60;64.90
488;DHT22;16586;48.976;9.584;2022-11-25T13:07:19;8.40;65.40
488;DHT22;16586;48.976;9.584;2022-11-25T13:10:11;8.50;65.40
488;DHT22;16586;48.976;9.584;2022-11-25T13:12:48;8.50;65.20
488;DHT22;16586;48.976;9.584;2022-11-25T13:15:23;8.40;65.60
488;DHT22;16586;48.976;9.584;2022-11-25T13:17:54;8.50;65.30
488;DHT22;16586;48.976;9.584;2022-11-25T13:20:45;8.60;65.10
488;DHT22;16586;48.976;9.584;2022-11-25T13:23:28;8.70;65.10
488;DHT22;16586;48.976;9.584;2022-11-25T13:31:55;8.80;65.80
488;DHT22;16586;48.976;9.584;2022-11-25T13:34:27;8.70;65.20
488;DHT22;16586;48.976;9.584;2022-11-25T13:36:55;8.70;65.30
488;DHT22;16586;48.976;9.584;2022-11-25T13:39:30;8.90;66.00
488;DHT22;16586;48.976;9.584;2022-11-25T13:42:00;8.90;65.50
488;DHT22;16586;48.976;9.584;2022-11-25T13:44:29;8.80;66.10
488;DHT22;16586;48.976;9.584;2022-11-25T13:49:59;9.20;68.90
488;DHT22;16586;48.976;9.584;2022-11-25T13:52:36;9.00;70.10
488;DHT22;16586;48.976;9.584;2022-11-25T13:55:20;9.00;70.10
488;DHT22;16586;48.976;9.584;2022-11-25T13:58:01;8.90;70.40
488;DHT22;16586;48.976;9.584;2022-11-25T14:00:47;8.90;71.40
488;DHT22;16586;48.976;9.584;2022-11-25T14:03:43;8.80;71.10
488;DHT22;16586;48.976;9.584;2022-11-25T14:06:23;8.80;71.10
488;DHT22;16586;48.976;9.584;2022-11-25T14:08:56;8.90;72.00
488;DHT22;16586;48.976;9.584;2022-11-25T14:11:52;8.70;72.20
488;DHT22;16586;48.976;9.584;2022-11-25T14:17:33;8.70;73.20
488;DHT22;16586;48.976;9.584;2022-11-25T14:20:24;8.80;72.20
488;DHT22;16586;48.976;9.584;2022-11-25T14:23:11;8.80;72.20
488;DHT22;16586;48.976;9.584;2022-11-25T14:25:47;8.80;71.90
488;DHT22;16586;48.976;9.584;2022-11-25T14:28:23;8.80;71.70
488;DHT22;16586;48.976;9.584;2022-11-25T14:30:54;8.90;71.80
488;DHT22;16586;48.976;9.584;2022-11-25T14:33:27;8.90;71.40
488;DHT22;16586;48.976;9.584;2022-11-25T14:36:00;9.00;71.90
488;DHT22;16586;48.976;9.584;2022-11-25T14:38:34;9.10;70.20
488;DHT22;16586;48.976;9.584;2022-11-25T14:41:06;9.30;69.20
488;DHT22;16586;48.976;9.584;2022-11-25T14:43:38;9.30;69.20
488;DHT22;16586;48.976;9.584;2022-11-25T14:46:11;9.30;68.80
488;DHT22;16586;48.976;9.584;2022-11-25T14:48:39;9.40;69.00
488;DHT22;16586;48.976;9.584;2022-11-25T14:51:09;9.40;68.30
488;DHT22;16586;48.976;9.584;2022-11-25T14:53:40;9.40;68.30
488;DHT22;16586;48.976;9.584;2022-11-25T14:56:07;9.20;68.50
488;DHT22;16586;48.976;9.584;2022-11-25T14:58:40;9.20;69.10
488;DHT22;16586;48.976;9.584;2022-11-25T15:01:16;10.00;70.00
488;DHT22;16586;48.976;9.584;2022-11-25T15:03:45;9.10;70.20
488;DHT22;16586;48.976;9.584;2022-11-25T15:06:13;9.20;70.10
488;DHT22;16586;48.976;9.584;2022-11-25T15:08:41;9.80;69.40
488;DHT22;16586;48.976;9.584;2022-11-25T15:11:12;9.40;68.30
488;DHT22;16586;48.976;9.584;2022-11-25T15:13:42;9.40;68.30
488;DHT22;16586;48.976;9.584;2022-11-25T15:16:12;9.90;69.60
488;DHT22;16586;48.976;9.584;2022-11-25T15:18:46;9.40;68.30
488;DHT22;16586;48.976;9.584;2022-11-25T15:21:15;9.30;68.20
488;DHT22;16586;48.976;9.584;2022-11-25T15:23:43;9.30;68.20
488;DHT22;16586;48.976;9.584;2022-11-25T15:26:16;9.10;68.90
488;DHT22;16586;48.976;9.584;2022-11-25T15:28:46;9.20;69.20
488;DHT22;16586;48.976;9.584;2022-11-25T15:31:17;8.90;68.80
488;DHT22;16586;48.976;9.584;2022-11-25T15:33:45;9.30;68.60
488;DHT22;16586;48.976;9.584;2022-11-25T15:36:12;9.30;68.20
488;DHT22;16586;48.976;9.584;2022-11-25T15:38:41;9.40;68.30
488;DHT22;16586;48.976;9.584;2022-11-25T15:41:29;9.40;68.80
488;DHT22;16586;48.976;9.584;2022-11-25T15:43:59;9.50;67.70
488;DHT22;16586;48.976;9.584;2022-11-25T15:46:34;9.50;67.60
488;DHT22;16586;48.976;9.584;2022-11-25T15:49:04;9.50;67.90
488;DHT22;16586;48.976;9.584;2022-11-25T15:51:37;9.20;67.60
488;DHT22;16586;48.976;9.584;2022-11-25T15:54:16;9.50;67.40
488;DHT22;16586;48.976;9.584;2022-11-25T15:56:46;9.50;67.60
488;DHT22;16586;48.976;9.584;2022-11-25T15:59:48;9.40;67.20
488;DHT22;16586;48.976;9.584;2022-11-25T16:02:36;9.50;66.60
488;DHT22;16586;48.976;9.584;2022-11-25T16:05:24;9.50;66.90
488;DHT22;16586;48.976;9.584;2022-11-25T16:08:24;9.40;66.70
488;DHT22;16586;48.976;9.584;2022-11-25T16:10:58;11.00;69.60
488;DHT22;16586;48.976;9.584;2022-11-25T16:13:31;9.10;68.80
488;DHT22;16586;48.976;9.584;2022-11-25T16:16:13;9.10;69.30
488;DHT22;16586;48.976;9.584;2022-11-25T16:18:43;9.10;69.10
488;DHT22;16586;48.976;9.584;2022-11-25T16:21:18;9.20;68.50
488;DHT22;16586;48.976;9.584;2022-11-25T16:23:49;9.30;69.10
488;DHT22;16586;48.976;9.584;2022-11-25T16:26:21;9.20;69.00
488;DHT22;16586;48.976;9.584;2022-11-25T16:28:51;9.10;68.00
488;DHT22;16586;48.976;9.584;2022-11-25T16:31:21;9.10;68.20
488;DHT22;16586;48.976;9.584;2022-11-25T16:33:49;9.20;68.60
488;DHT22;16586;48.976;9.584;2022-11-25T16:36:16;8.70;67.70
488;DHT22;16586;48.976;9.584;2022-11-25T16:38:43;9.10;68.00
488;DHT22;16586;48.976;9.584;2022-11-25T16:41:16;9.10;68.00
488;DHT22;16586;48.976;9.584;2022-11-25T16:46:14;9.10;68.00
488;DHT22;16586;48.976;9.584;2022-11-25T16:48:43;9.10;68.20
488;DHT22;16586;48.976;9.584;2022-11-25T16:51:14;9.20;68.10
488;DHT22;16586;48.976;9.584;2022-11-25T16:56:11;9.30;68.20
488;DHT22;16586;48.976;9.584;2022-11-25T16:58:41;9.20;67.70
488;DHT22;16586;48.976;9.584;2022-11-25T17:01:11;9.10;67.30
488;DHT22;16586;48.976;9.584;2022-11-25T17:03:40;9.10;68.70
488;DHT22;16586;48.976;9.584;2022-11-25T17:06:15;9.20;68.10
488;DHT22;16586;48.976;9.584;2022-11-25T17:08:42;9.20;68.10
488;DHT22;16586;48.976;9.584;2022-11-25T17:11:14;9.10;68.00
488;DHT22;16586;48.976;9.584;2022-11-25T17:13:45;9.40;68.90